sensor_id;sensor_type;location;lat;lon;timestamp;pressure;altitude;pressure_sealevel;temperature;humidity
69689;BME280;56932;38.402;-96.176;2022-08-06T00:00:53;97254.39;;;23.91;29.56
69689;BME280;56932;38.402;-96.176;2022-08-06T00:03:18;97253.04;;;23.86;29.63
69689;BME280;56932;38.402;-96.176;2022-08-06T00:05:44;97252.22;;;23.38;30.02
69689;BME280;56932;38.402;-96.176;2022-08-06T00:08:09;97248.93;;;22.65;30.65
69689;BME280;56932;38.402;-96.176;2022-08-06T00:10:34;97248.99;;;23.66;29.34
69689;BME280;56932;38.402;-96.176;2022-08-06T00:13:00;97248.37;;;23.08;29.96
69689;BME280;56932;38.402;-96.176;2022-08-06T00:15:25;97251.89;;;23.16;29.62
69689;BME280;56932;38.402;-96.176;2022-08-06T00:17:51;97249.47;;;22.51;30.57
69689;BME280;56932;38.402;-96.176;2022-08-06T00:20:17;97247.63;;;23.01;29.88
69689;BME280;56932;38.402;-96.176;2022-08-06T00:22:42;97246.45;;;22.69;30.55
69689;BME280;56932;38.402;-96.176;2022-08-06T00:25:08;97244.76;;;22.75;30.06
69689;BME280;56932;38.402;-96.176;2022-08-06T00:27:33;97248.04;;;23.06;29.45
69689;BME280;56932;38.402;-96.176;2022-08-06T00:29:58;97246.95;;;22.87;30.11
69689;BME280;56932;38.402;-96.176;2022-08-06T00:32:23;97250.81;;;22.82;30.11
69689;BME280;56932;38.402;-96.176;2022-08-06T00:34:48;97253.21;;;22.56;30.13
69689;BME280;56932;38.402;-96.176;2022-08-06T00:37:14;97258.76;;;23.46;28.99
69689;BME280;56932;38.402;-96.176;2022-08-06T00:39:39;97257.50;;;22.89;29.36
69689;BME280;56932;38.402;-96.176;2022-08-06T00:42:05;97258.51;;;22.52;30.02
69689;BME280;56932;38.402;-96.176;2022-08-06T00:44:30;97256.73;;;22.49;29.98
69689;BME280;56932;38.402;-96.176;2022-08-06T00:46:56;97258.32;;;22.38;30.08
69689;BME280;56932;38.402;-96.176;2022-08-06T00:49:22;97262.82;;;23.17;29.20
69689;BME280;56932;38.402;-96.176;2022-08-06T00:51:46;97265.04;;;22.60;30.01
69689;BME280;56932;38.402;-96.176;2022-08-06T00:54:12;97267.07;;;22.41;30.01
69689;BME280;56932;38.402;-96.176;2022-08-06T00:56:37;97269.82;;;22.72;29.48
69689;BME280;56932;38.402;-96.176;2022-08-06T00:59:03;97271.39;;;22.81;29.37
69689;BME280;56932;38.402;-96.176;2022-08-06T01:01:28;97277.31;;;22.40;30.39
69689;BME280;56932;38.402;-96.176;2022-08-06T01:03:53;97277.74;;;22.34;30.13
69689;BME280;56932;38.402;-96.176;2022-08-06T01:06:19;97278.52;;;22.53;29.63
69689;BME280;56932;38.402;-96.176;2022-08-06T01:08:44;97281.77;;;23.22;28.88
69689;BME280;56932;38.402;-96.176;2022-08-06T01:11:10;97280.92;;;22.38;29.66
69689;BME280;56932;38.402;-96.176;2022-08-06T01:13:35;97279.59;;;22.45;29.57
69689;BME280;56932;38.402;-96.176;2022-08-06T01:16:10;97281.97;;;22.51;29.74
69689;BME280;56932;38.402;-96.176;2022-08-06T01:18:29;97280.42;;;22.44;29.73
69689;BME280;56932;38.402;-96.176;2022-08-06T01:21:01;97280.69;;;22.83;29.33
69689;BME280;56932;38.402;-96.176;2022-08-06T01:23:32;97279.40;;;22.51;29.59
69689;BME280;56932;38.402;-96.176;2022-08-06T01:25:56;97283.79;;;22.96;29.11
69689;BME280;56932;38.402;-96.176;2022-08-06T01:28:12;97282.99;;;22.43;29.62
69689;BME280;56932;38.402;-96.176;2022-08-06T01:30:37;97283.26;;;22.97;28.92
69689;BME280;56932;38.402;-96.176;2022-08-06T01:33:04;97279.89;;;22.96;28.78
69689;BME280;56932;38.402;-96.176;2022-08-06T01:35:29;97279.48;;;21.85;30.12
69689;BME280;56932;38.402;-96.176;2022-08-06T01:37:55;97280.08;;;21.73;30.66
69689;BME280;56932;38.402;-96.176;2022-08-06T01:40:21;97283.10;;;22.33;29.66
69689;BME280;56932;38.402;-96.176;2022-08-06T01:42:41;97286.06;;;22.27;29.95
69689;BME280;56932;38.402;-96.176;2022-08-06T01:45:11;97286.05;;;21.88;30.17
69689;BME280;56932;38.402;-96.176;2022-08-06T01:47:33;97289.39;;;22.33;29.55
69689;BME280;56932;38.402;-96.176;2022-08-06T01:49:59;97286.07;;;21.67;30.45
69689;BME280;56932;38.402;-96.176;2022-08-06T01:52:24;97283.43;;;21.86;30.24
69689;BME280;56932;38.402;-96.176;2022-08-06T01:54:50;97286.03;;;21.62;30.47
69689;BME280;56932;38.402;-96.176;2022-08-06T01:57:16;97289.20;;;21.38;30.76
69689;BME280;56932;38.402;-96.176;2022-08-06T01:59:43;97290.00;;;21.79;30.55
69689;BME280;56932;38.402;-96.176;2022-08-06T02:02:08;97291.02;;;21.64;30.68
69689;BME280;56932;38.402;-96.176;2022-08-06T02:04:34;97289.86;;;21.84;30.22
69689;BME280;56932;38.402;-96.176;2022-08-06T02:06:56;97289.98;;;21.43;30.58
69689;BME280;56932;38.402;-96.176;2022-08-06T02:09:23;97287.95;;;22.71;29.14
69689;BME280;56932;38.402;-96.176;2022-08-06T02:11:49;97292.82;;;21.68;30.20
69689;BME280;56932;38.402;-96.176;2022-08-06T02:14:13;97296.13;;;21.65;30.09
69689;BME280;56932;38.402;-96.176;2022-08-06T02:16:38;97301.21;;;21.66;30.01
69689;BME280;56932;38.402;-96.176;2022-08-06T02:19:04;97303.57;;;21.52;30.31
69689;BME280;56932;38.402;-96.176;2022-08-06T02:21:29;97305.95;;;22.43;29.02
69689;BME280;56932;38.402;-96.176;2022-08-06T02:23:54;97304.61;;;21.51;30.14
69689;BME280;56932;38.402;-96.176;2022-08-06T02:26:21;97305.08;;;21.73;30.29
69689;BME280;56932;38.402;-96.176;2022-08-06T02:28:46;97312.84;;;21.00;31.00
69689;BME280;56932;38.402;-96.176;2022-08-06T02:31:10;97314.69;;;21.24;30.67
69689;BME280;56932;38.402;-96.176;2022-08-06T02:33:36;97317.44;;;21.44;30.51
69689;BME280;56932;38.402;-96.176;2022-08-06T02:36:04;97322.30;;;21.17;30.21
69689;BME280;56932;38.402;-96.176;2022-08-06T02:38:31;97330.27;;;21.31;30.57
69689;BME280;56932;38.402;-96.176;2022-08-06T02:40:55;97332.26;;;21.29;30.49
69689;BME280;56932;38.402;-96.176;2022-08-06T02:43:21;97338.97;;;21.39;30.05
69689;BME280;56932;38.402;-96.176;2022-08-06T02:45:48;97341.76;;;21.16;30.30
69689;BME280;56932;38.402;-96.176;2022-08-06T02:48:14;97346.24;;;21.41;29.89
69689;BME280;56932;38.402;-96.176;2022-08-06T02:50:36;97345.97;;;21.18;30.14
69689;BME280;56932;38.402;-96.176;2022-08-06T02:53:03;97349.03;;;21.25;30.42
69689;BME280;56932;38.402;-96.176;2022-08-06T02:55:29;97352.51;;;21.04;30.30
69689;BME280;56932;38.402;-96.176;2022-08-06T02:57:53;97353.24;;;21.00;30.63
69689;BME280;56932;38.402;-96.176;2022-08-06T03:00:16;97353.32;;;20.88;30.66
69689;BME280;56932;38.402;-96.176;2022-08-06T03:02:42;97356.89;;;21.09;29.99
69689;BME280;56932;38.402;-96.176;2022-08-06T03:05:10;97355.68;;;21.16;29.66
69689;BME280;56932;38.402;-96.176;2022-08-06T03:07:34;97358.88;;;20.88;30.43
69689;BME280;56932;38.402;-96.176;2022-08-06T03:10:00;97364.57;;;21.49;29.67
69689;BME280;56932;38.402;-96.176;2022-08-06T03:12:24;97364.17;;;20.56;30.20
69689;BME280;56932;38.402;-96.176;2022-08-06T03:14:50;97364.34;;;20.87;30.32
69689;BME280;56932;38.402;-96.176;2022-08-06T03:17:15;97369.60;;;21.08;29.45
69689;BME280;56932;38.402;-96.176;2022-08-06T03:19:42;97369.67;;;20.89;30.24
69689;BME280;56932;38.402;-96.176;2022-08-06T03:22:06;97375.71;;;21.33;29.69
69689;BME280;56932;38.402;-96.176;2022-08-06T03:24:31;97375.06;;;21.22;29.82
69689;BME280;56932;38.402;-96.176;2022-08-06T03:26:58;97372.54;;;21.23;29.73
69689;BME280;56932;38.402;-96.176;2022-08-06T03:29:22;97371.83;;;21.35;29.24
69689;BME280;56932;38.402;-96.176;2022-08-06T03:31:48;97371.90;;;21.01;29.34
69689;BME280;56932;38.402;-96.176;2022-08-06T03:34:13;97368.32;;;21.93;29.01
69689;BME280;56932;38.402;-96.176;2022-08-06T03:36:38;97365.74;;;21.95;28.63
69689;BME280;56932;38.402;-96.176;2022-08-06T03:39:06;97367.06;;;20.94;30.10
69689;BME280;56932;38.402;-96.176;2022-08-06T03:41:32;97366.32;;;20.30;30.20
69689;BME280;56932;38.402;-96.176;2022-08-06T03:43:55;97363.81;;;20.77;30.26
69689;BME280;56932;38.402;-96.176;2022-08-06T03:46:24;97364.09;;;20.97;30.02
69689;BME280;56932;38.402;-96.176;2022-08-06T03:48:46;97366.69;;;21.17;29.77
69689;BME280;56932;38.402;-96.176;2022-08-06T03:51:13;97368.26;;;20.94;29.88
69689;BME280;56932;38.402;-96.176;2022-08-06T03:53:39;97372.48;;;20.94;29.52
69689;BME280;56932;38.402;-96.176;2022-08-06T03:56:03;97375.35;;;21.42;29.32
69689;BME280;56932;38.402;-96.176;2022-08-06T03:58:28;97373.68;;;21.16;29.03
69689;BME280;56932;38.402;-96.176;2022-08-06T04:00:56;97372.93;;;20.99;29.49
69689;BME280;56932;38.402;-96.176;2022-08-06T04:03:20;97374.34;;;21.02;29.49
69689;BME280;56932;38.402;-96.176;2022-08-06T04:05:45;97374.83;;;20.49;30.06
69689;BME280;56932;38.402;-96.176;2022-08-06T04:08:12;97378.31;;;21.17;29.01
69689;BME280;56932;38.402;-96.176;2022-08-06T04:10:39;97381.49;;;21.26;29.23
69689;BME280;56932;38.402;-96.176;2022-08-06T04:13:04;97378.08;;;20.37;29.87
69689;BME280;56932;38.402;-96.176;2022-08-06T04:15:27;97376.73;;;20.59;29.62
69689;BME280;56932;38.402;-96.176;2022-08-06T04:17:53;97377.64;;;20.87;28.96
69689;BME280;56932;38.402;-96.176;2022-08-06T04:20:21;97377.71;;;20.81;29.06
69689;BME280;56932;38.402;-96.176;2022-08-06T04:22:44;97379.10;;;20.53;29.16
69689;BME280;56932;38.402;-96.176;2022-08-06T04:25:09;97384.61;;;21.00;29.25
69689;BME280;56932;38.402;-96.176;2022-08-06T04:27:35;97388.66;;;20.64;29.50
69689;BME280;56932;38.402;-96.176;2022-08-06T04:30:01;97391.34;;;20.31;29.64
69689;BME280;56932;38.402;-96.176;2022-08-06T04:32:26;97394.86;;;20.71;29.36
69689;BME280;56932;38.402;-96.176;2022-08-06T04:34:52;97400.24;;;21.25;28.73
69689;BME280;56932;38.402;-96.176;2022-08-06T04:37:16;97403.33;;;20.66;29.03
69689;BME280;56932;38.402;-96.176;2022-08-06T04:39:42;97402.30;;;21.17;28.82
69689;BME280;56932;38.402;-96.176;2022-08-06T04:42:07;97405.61;;;20.94;29.03
69689;BME280;56932;38.402;-96.176;2022-08-06T04:44:33;97401.45;;;20.43;29.56
69689;BME280;56932;38.402;-96.176;2022-08-06T04:46:58;97403.93;;;20.33;29.54
69689;BME280;56932;38.402;-96.176;2022-08-06T04:49:24;97403.34;;;20.18;29.34
69689;BME280;56932;38.402;-96.176;2022-08-06T04:51:49;97406.02;;;20.84;28.89
69689;BME280;56932;38.402;-96.176;2022-08-06T04:54:15;97405.57;;;20.38;29.42
69689;BME280;56932;38.402;-96.176;2022-08-06T04:56:40;97412.88;;;20.83;28.86
69689;BME280;56932;38.402;-96.176;2022-08-06T04:59:06;97412.06;;;20.29;29.48
69689;BME280;56932;38.402;-96.176;2022-08-06T05:01:31;97418.02;;;20.78;28.59
69689;BME280;56932;38.402;-96.176;2022-08-06T05:03:56;97423.53;;;19.93;29.77
69689;BME280;56932;38.402;-96.176;2022-08-06T05:06:25;97428.61;;;20.45;29.21
69689;BME280;56932;38.402;-96.176;2022-08-06T05:08:54;97434.79;;;20.24;29.40
69689;BME280;56932;38.402;-96.176;2022-08-06T05:11:16;97430.72;;;20.39;29.28
69689;BME280;56932;38.402;-96.176;2022-08-06T05:13:39;97434.85;;;20.12;29.49
69689;BME280;56932;38.402;-96.176;2022-08-06T05:16:05;97434.50;;;20.68;28.84
69689;BME280;56932;38.402;-96.176;2022-08-06T05:18:32;97434.95;;;20.43;28.80
69689;BME280;56932;38.402;-96.176;2022-08-06T05:20:55;97435.76;;;20.22;29.27
69689;BME280;56932;38.402;-96.176;2022-08-06T05:23:24;97442.36;;;20.40;29.30
69689;BME280;56932;38.402;-96.176;2022-08-06T05:25:46;97442.11;;;20.09;29.37
69689;BME280;56932;38.402;-96.176;2022-08-06T05:28:11;97446.07;;;20.28;29.18
69689;BME280;56932;38.402;-96.176;2022-08-06T05:30:41;97445.28;;;20.34;29.30
69689;BME280;56932;38.402;-96.176;2022-08-06T05:33:02;97442.25;;;19.86;29.53
69689;BME280;56932;38.402;-96.176;2022-08-06T05:35:28;97446.63;;;20.41;28.98
69689;BME280;56932;38.402;-96.176;2022-08-06T05:37:53;97445.22;;;20.02;29.65
69689;BME280;56932;38.402;-96.176;2022-08-06T05:40:19;97445.28;;;20.21;29.69
69689;BME280;56932;38.402;-96.176;2022-08-06T05:42:44;97445.71;;;19.87;29.77
69689;BME280;56932;38.402;-96.176;2022-08-06T05:45:11;97444.53;;;20.10;29.69
69689;BME280;56932;38.402;-96.176;2022-08-06T05:47:37;97444.43;;;20.30;29.52
69689;BME280;56932;38.402;-96.176;2022-08-06T05:50:05;97448.19;;;20.42;28.86
69689;BME280;56932;38.402;-96.176;2022-08-06T05:52:29;97449.29;;;19.92;29.33
69689;BME280;56932;38.402;-96.176;2022-08-06T05:54:53;97448.15;;;20.09;29.65
69689;BME280;56932;38.402;-96.176;2022-08-06T05:57:21;97451.00;;;20.21;29.24
69689;BME280;56932;38.402;-96.176;2022-08-06T05:59:48;97453.90;;;19.79;29.69
69689;BME280;56932;38.402;-96.176;2022-08-06T06:02:10;97455.52;;;20.10;29.26
69689;BME280;56932;38.402;-96.176;2022-08-06T06:04:33;97455.58;;;20.02;29.57
69689;BME280;56932;38.402;-96.176;2022-08-06T06:06:59;97453.76;;;20.19;29.30
69689;BME280;56932;38.402;-96.176;2022-08-06T06:09:25;97453.76;;;19.81;29.82
69689;BME280;56932;38.402;-96.176;2022-08-06T06:11:50;97453.74;;;19.96;29.57
69689;BME280;56932;38.402;-96.176;2022-08-06T06:14:24;97451.59;;;19.70;29.64
69689;BME280;56932;38.402;-96.176;2022-08-06T06:16:49;97453.55;;;20.24;28.95
69689;BME280;56932;38.402;-96.176;2022-08-06T06:19:13;97453.60;;;19.83;29.12
69689;BME280;56932;38.402;-96.176;2022-08-06T06:21:46;97452.96;;;19.46;30.02
69689;BME280;56932;38.402;-96.176;2022-08-06T06:24:05;97451.03;;;19.79;29.52
69689;BME280;56932;38.402;-96.176;2022-08-06T06:26:27;97444.80;;;19.81;29.39
69689;BME280;56932;38.402;-96.176;2022-08-06T06:28:54;97440.92;;;20.19;29.58
69689;BME280;56932;38.402;-96.176;2022-08-06T06:31:21;97442.21;;;20.26;29.99
69689;BME280;56932;38.402;-96.176;2022-08-06T06:33:44;97440.62;;;20.63;30.12
69689;BME280;56932;38.402;-96.176;2022-08-06T06:36:11;97442.37;;;21.13;30.27
69689;BME280;56932;38.402;-96.176;2022-08-06T06:38:38;97446.37;;;21.20;30.10
69689;BME280;56932;38.402;-96.176;2022-08-06T06:41:06;97444.55;;;21.58;29.98
69689;BME280;56932;38.402;-96.176;2022-08-06T06:43:36;97445.61;;;21.82;30.01
69689;BME280;56932;38.402;-96.176;2022-08-06T06:45:54;97444.22;;;21.45;30.36
69689;BME280;56932;38.402;-96.176;2022-08-06T06:48:15;97438.24;;;21.72;30.63
69689;BME280;56932;38.402;-96.176;2022-08-06T06:50:41;97436.34;;;21.70;30.60
69689;BME280;56932;38.402;-96.176;2022-08-06T06:53:04;97435.15;;;21.86;30.63
69689;BME280;56932;38.402;-96.176;2022-08-06T06:55:32;97433.04;;;21.71;30.75
69689;BME280;56932;38.402;-96.176;2022-08-06T06:57:58;97428.96;;;21.71;31.00
69689;BME280;56932;38.402;-96.176;2022-08-06T07:00:20;97425.98;;;21.30;31.67
69689;BME280;56932;38.402;-96.176;2022-08-06T07:02:47;97425.86;;;21.87;31.46
69689;BME280;56932;38.402;-96.176;2022-08-06T07:05:12;97423.29;;;21.99;31.26
69689;BME280;56932;38.402;-96.176;2022-08-06T07:07:39;97418.77;;;22.44;31.12
69689;BME280;56932;38.402;-96.176;2022-08-06T07:10:02;97414.91;;;22.10;31.49
69689;BME280;56932;38.402;-96.176;2022-08-06T07:12:30;97406.44;;;21.98;31.80
69689;BME280;56932;38.402;-96.176;2022-08-06T07:14:54;97403.98;;;22.55;31.27
69689;BME280;56932;38.402;-96.176;2022-08-06T07:17:19;97402.90;;;22.00;32.03
69689;BME280;56932;38.402;-96.176;2022-08-06T07:19:43;97397.47;;;22.09;32.08
69689;BME280;56932;38.402;-96.176;2022-08-06T07:22:10;97394.09;;;22.22;32.32
69689;BME280;56932;38.402;-96.176;2022-08-06T07:24:36;97393.76;;;22.50;31.90
69689;BME280;56932;38.402;-96.176;2022-08-06T07:27:00;97396.09;;;22.23;32.58
69689;BME280;56932;38.402;-96.176;2022-08-06T07:29:26;97399.09;;;22.06;32.90
69689;BME280;56932;38.402;-96.176;2022-08-06T07:31:51;97392.61;;;21.97;32.60
69689;BME280;56932;38.402;-96.176;2022-08-06T07:34:17;97394.58;;;22.32;32.53
69689;BME280;56932;38.402;-96.176;2022-08-06T07:36:48;97388.51;;;22.52;32.17
69689;BME280;56932;38.402;-96.176;2022-08-06T07:39:10;97386.74;;;22.14;32.75
69689;BME280;56932;38.402;-96.176;2022-08-06T07:41:34;97386.89;;;22.08;33.19
69689;BME280;56932;38.402;-96.176;2022-08-06T07:44:01;97386.36;;;22.85;32.32
69689;BME280;56932;38.402;-96.176;2022-08-06T07:46:27;97389.31;;;22.11;33.03
69689;BME280;56932;38.402;-96.176;2022-08-06T07:48:54;97387.63;;;22.36;32.82
69689;BME280;56932;38.402;-96.176;2022-08-06T07:51:16;97386.85;;;22.51;33.03
69689;BME280;56932;38.402;-96.176;2022-08-06T07:53:41;97391.66;;;22.47;33.17
69689;BME280;56932;38.402;-96.176;2022-08-06T07:56:07;97398.49;;;22.58;33.11
69689;BME280;56932;38.402;-96.176;2022-08-06T07:58:32;97402.24;;;22.35;33.45
69689;BME280;56932;38.402;-96.176;2022-08-06T08:00:57;97409.70;;;22.16;33.52
69689;BME280;56932;38.402;-96.176;2022-08-06T08:03:23;97408.68;;;22.52;32.82
69689;BME280;56932;38.402;-96.176;2022-08-06T08:05:48;97415.53;;;22.85;33.10
69689;BME280;56932;38.402;-96.176;2022-08-06T08:08:13;97416.35;;;22.75;33.31
69689;BME280;56932;38.402;-96.176;2022-08-06T08:10:39;97412.59;;;22.39;33.18
69689;BME280;56932;38.402;-96.176;2022-08-06T08:13:05;97414.38;;;22.62;33.32
69689;BME280;56932;38.402;-96.176;2022-08-06T08:15:30;97418.14;;;22.37;33.77
69689;BME280;56932;38.402;-96.176;2022-08-06T08:17:55;97423.08;;;22.78;33.56
69689;BME280;56932;38.402;-96.176;2022-08-06T08:20:21;97420.51;;;23.15;33.17
69689;BME280;56932;38.402;-96.176;2022-08-06T08:22:46;97425.14;;;22.52;33.76
69689;BME280;56932;38.402;-96.176;2022-08-06T08:25:11;97425.68;;;22.84;33.68
69689;BME280;56932;38.402;-96.176;2022-08-06T08:27:37;97426.35;;;22.69;33.69
69689;BME280;56932;38.402;-96.176;2022-08-06T08:30:03;97423.59;;;22.82;33.26
69689;BME280;56932;38.402;-96.176;2022-08-06T08:32:28;97423.82;;;22.65;33.55
69689;BME280;56932;38.402;-96.176;2022-08-06T08:34:54;97421.09;;;22.89;33.32
69689;BME280;56932;38.402;-96.176;2022-08-06T08:37:19;97418.63;;;22.77;33.53
69689;BME280;56932;38.402;-96.176;2022-08-06T08:39:44;97419.45;;;22.97;33.70
69689;BME280;56932;38.402;-96.176;2022-08-06T08:42:17;97417.68;;;23.14;33.19
69689;BME280;56932;38.402;-96.176;2022-08-06T08:44:35;97415.31;;;22.91;33.54
69689;BME280;56932;38.402;-96.176;2022-08-06T08:47:02;97418.37;;;22.99;33.85
69689;BME280;56932;38.402;-96.176;2022-08-06T08:49:34;97423.34;;;22.98;33.66
69689;BME280;56932;38.402;-96.176;2022-08-06T08:51:52;97423.96;;;22.86;34.17
69689;BME280;56932;38.402;-96.176;2022-08-06T08:54:20;97422.70;;;23.37;33.26
69689;BME280;56932;38.402;-96.176;2022-08-06T08:56:44;97422.62;;;22.45;34.50
69689;BME280;56932;38.402;-96.176;2022-08-06T08:59:09;97425.58;;;22.79;34.11
69689;BME280;56932;38.402;-96.176;2022-08-06T09:01:34;97432.40;;;22.77;34.23
69689;BME280;56932;38.402;-96.176;2022-08-06T09:04:02;97434.87;;;23.12;34.54
69689;BME280;56932;38.402;-96.176;2022-08-06T09:06:25;97443.68;;;22.17;35.09
69689;BME280;56932;38.402;-96.176;2022-08-06T09:08:50;97442.61;;;21.78;34.13
69689;BME280;56932;38.402;-96.176;2022-08-06T09:11:15;97440.75;;;21.88;33.38
69689;BME280;56932;38.402;-96.176;2022-08-06T09:13:41;97442.92;;;21.45;32.90
69689;BME280;56932;38.402;-96.176;2022-08-06T09:16:07;97444.59;;;21.98;32.04
69689;BME280;56932;38.402;-96.176;2022-08-06T09:18:32;97444.97;;;22.16;31.23
69689;BME280;56932;38.402;-96.176;2022-08-06T09:20:59;97443.98;;;21.46;31.62
69689;BME280;56932;38.402;-96.176;2022-08-06T09:23:23;97440.45;;;21.74;30.80
69689;BME280;56932;38.402;-96.176;2022-08-06T09:25:50;97436.21;;;21.04;31.35
69689;BME280;56932;38.402;-96.176;2022-08-06T09:30:39;97431.83;;;21.34;30.40
69689;BME280;56932;38.402;-96.176;2022-08-06T09:33:10;97426.64;;;20.89;31.12
69689;BME280;56932;38.402;-96.176;2022-08-06T09:35:30;97426.03;;;20.97;30.92
69689;BME280;56932;38.402;-96.176;2022-08-06T09:38:02;97428.54;;;21.12;30.14
69689;BME280;56932;38.402;-96.176;2022-08-06T09:40:21;97428.46;;;20.67;30.67
69689;BME280;56932;38.402;-96.176;2022-08-06T09:42:48;97426.85;;;20.72;30.41
69689;BME280;56932;38.402;-96.176;2022-08-06T09:45:14;97426.95;;;20.65;30.28
69689;BME280;56932;38.402;-96.176;2022-08-06T09:47:37;97427.33;;;20.44;30.37
69689;BME280;56932;38.402;-96.176;2022-08-06T09:50:04;97423.69;;;20.50;30.23
69689;BME280;56932;38.402;-96.176;2022-08-06T09:52:28;97429.60;;;20.14;30.44
69689;BME280;56932;38.402;-96.176;2022-08-06T09:54:54;97430.29;;;20.46;29.94
69689;BME280;56932;38.402;-96.176;2022-08-06T09:57:20;97433.82;;;20.68;29.68
69689;BME280;56932;38.402;-96.176;2022-08-06T09:59:47;97438.37;;;20.33;30.04
69689;BME280;56932;38.402;-96.176;2022-08-06T10:02:13;97445.89;;;20.11;30.05
69689;BME280;56932;38.402;-96.176;2022-08-06T10:04:36;97446.03;;;20.04;30.09
69689;BME280;56932;38.402;-96.176;2022-08-06T10:07:02;97444.81;;;20.33;29.55
69689;BME280;56932;38.402;-96.176;2022-08-06T10:09:27;97447.74;;;20.47;29.39
69689;BME280;56932;38.402;-96.176;2022-08-06T10:11:53;97453.17;;;20.51;29.55
69689;BME280;56932;38.402;-96.176;2022-08-06T10:14:22;97449.72;;;20.03;30.22
69689;BME280;56932;38.402;-96.176;2022-08-06T10:16:43;97451.43;;;20.10;29.64
69689;BME280;56932;38.402;-96.176;2022-08-06T10:19:16;97452.27;;;20.00;30.10
69689;BME280;56932;38.402;-96.176;2022-08-06T10:21:34;97451.42;;;20.25;29.78
69689;BME280;56932;38.402;-96.176;2022-08-06T10:24:02;97449.42;;;19.96;29.71
69689;BME280;56932;38.402;-96.176;2022-08-06T10:26:26;97452.82;;;19.79;30.06
69689;BME280;56932;38.402;-96.176;2022-08-06T10:28:52;97455.53;;;20.15;29.36
69689;BME280;56932;38.402;-96.176;2022-08-06T10:31:17;97458.13;;;20.42;29.35
69689;BME280;56932;38.402;-96.176;2022-08-06T10:33:48;97460.36;;;20.24;29.52
69689;BME280;56932;38.402;-96.176;2022-08-06T10:36:11;97459.49;;;20.26;29.21
69689;BME280;56932;38.402;-96.176;2022-08-06T10:38:35;97464.64;;;19.92;29.65
69689;BME280;56932;38.402;-96.176;2022-08-06T10:40:58;97468.87;;;19.93;29.64
69689;BME280;56932;38.402;-96.176;2022-08-06T10:43:25;97466.84;;;20.08;29.01
69689;BME280;56932;38.402;-96.176;2022-08-06T10:45:49;97468.08;;;19.96;29.55
69689;BME280;56932;38.402;-96.176;2022-08-06T10:48:15;97467.67;;;19.48;30.28
69689;BME280;56932;38.402;-96.176;2022-08-06T10:50:40;97464.23;;;19.88;29.47
69689;BME280;56932;38.402;-96.176;2022-08-06T10:53:07;97461.94;;;19.91;29.52
69689;BME280;56932;38.402;-96.176;2022-08-06T10:55:32;97462.56;;;19.98;29.37
69689;BME280;56932;38.402;-96.176;2022-08-06T10:57:58;97461.67;;;19.69;29.62
69689;BME280;56932;38.402;-96.176;2022-08-06T11:00:22;97458.09;;;19.46;29.81
69689;BME280;56932;38.402;-96.176;2022-08-06T11:02:56;97453.31;;;19.73;29.57
69689;BME280;56932;38.402;-96.176;2022-08-06T11:05:16;97455.77;;;19.52;29.46
69689;BME280;56932;38.402;-96.176;2022-08-06T11:12:43;97467.54;;;19.97;29.19
69689;BME280;56932;38.402;-96.176;2022-08-06T11:14:56;97472.28;;;20.13;29.01
69689;BME280;56932;38.402;-96.176;2022-08-06T11:17:21;97473.37;;;20.03;28.55
69689;BME280;56932;38.402;-96.176;2022-08-06T11:19:47;97476.93;;;19.44;29.49
69689;BME280;56932;38.402;-96.176;2022-08-06T11:27:03;97485.72;;;20.25;30.30
69689;BME280;56932;38.402;-96.176;2022-08-06T11:29:28;97490.62;;;20.89;30.01
69689;BME280;56932;38.402;-96.176;2022-08-06T11:31:53;97494.12;;;21.04;30.14
69689;BME280;56932;38.402;-96.176;2022-08-06T11:34:20;97497.44;;;21.28;30.20
69689;BME280;56932;38.402;-96.176;2022-08-06T11:36:48;97503.16;;;20.85;30.61
69689;BME280;56932;38.402;-96.176;2022-08-06T11:39:10;97510.32;;;21.10;30.96
69689;BME280;56932;38.402;-96.176;2022-08-06T11:41:46;97504.76;;;21.17;31.16
69689;BME280;56932;38.402;-96.176;2022-08-06T11:44:05;97506.59;;;21.27;31.25
69689;BME280;56932;38.402;-96.176;2022-08-06T11:46:28;97507.81;;;21.15;31.31
69689;BME280;56932;38.402;-96.176;2022-08-06T11:56:08;97518.21;;;21.74;31.05
69689;BME280;56932;38.402;-96.176;2022-08-06T11:58:34;97518.01;;;21.47;31.56
69689;BME280;56932;38.402;-96.176;2022-08-06T12:01:00;97519.09;;;21.44;32.02
69689;BME280;56932;38.402;-96.176;2022-08-06T12:05:50;97518.61;;;21.34;32.44
69689;BME280;56932;38.402;-96.176;2022-08-06T12:08:21;97532.04;;;21.61;32.23
69689;BME280;56932;38.402;-96.176;2022-08-06T12:15:36;97533.92;;;21.97;32.06
69689;BME280;56932;38.402;-96.176;2022-08-06T12:17:59;97538.82;;;22.13;32.25
69689;BME280;56932;38.402;-96.176;2022-08-06T12:20:29;97541.66;;;21.84;32.49
69689;BME280;56932;38.402;-96.176;2022-08-06T12:22:49;97539.09;;;22.21;32.17
69689;BME280;56932;38.402;-96.176;2022-08-06T12:25:14;97535.08;;;21.72;32.87
69689;BME280;56932;38.402;-96.176;2022-08-06T12:27:40;97537.09;;;22.51;32.60
69689;BME280;56932;38.402;-96.176;2022-08-06T12:30:05;97540.97;;;21.91;33.11
69689;BME280;56932;38.402;-96.176;2022-08-06T12:32:31;97538.34;;;22.14;32.96
69689;BME280;56932;38.402;-96.176;2022-08-06T12:34:58;97537.36;;;21.59;33.49
69689;BME280;56932;38.402;-96.176;2022-08-06T12:37:31;97531.65;;;21.94;33.16
69689;BME280;56932;38.402;-96.176;2022-08-06T12:39:47;97538.99;;;21.91;33.60
69689;BME280;56932;38.402;-96.176;2022-08-06T12:44:37;97533.40;;;21.98;33.47
69689;BME280;56932;38.402;-96.176;2022-08-06T12:47:11;97540.41;;;22.32;33.18
69689;BME280;56932;38.402;-96.176;2022-08-06T12:49:30;97539.31;;;22.19;33.43
69689;BME280;56932;38.402;-96.176;2022-08-06T12:51:54;97543.37;;;22.07;33.66
69689;BME280;56932;38.402;-96.176;2022-08-06T12:54:27;97546.35;;;22.65;33.01
69689;BME280;56932;38.402;-96.176;2022-08-06T12:56:45;97544.65;;;22.29;33.86
69689;BME280;56932;38.402;-96.176;2022-08-06T12:59:12;97556.55;;;22.32;33.61